createdAt,value
2022-08-03T00:01:38.349Z,6.10
2022-08-03T00:04:05.523Z,6.43
2022-08-03T00:06:36.780Z,6.15
2022-08-03T00:09:04.610Z,4.75
2022-08-03T00:11:31.039Z,7.00
2022-08-03T00:13:57.433Z,5.07
2022-08-03T00:16:25.180Z,6.28
2022-08-03T00:18:51.743Z,10.02
2022-08-03T00:21:18.164Z,10.90
2022-08-03T00:23:52.580Z,9.73
2022-08-03T00:26:19.730Z,4.70
2022-08-03T00:28:46.170Z,6.40
2022-08-03T00:31:13.425Z,7.00
2022-08-03T00:33:59.221Z,10.25
2022-08-03T00:36:37.062Z,7.43
2022-08-03T00:39:03.973Z,10.50
2022-08-03T00:41:30.361Z,7.13
2022-08-03T00:43:56.783Z,11.23
2022-08-03T00:46:23.143Z,6.50
2022-08-03T00:51:15.928Z,7.07
2022-08-03T00:53:42.835Z,6.93
2022-08-03T00:56:12.078Z,8.27
2022-08-03T00:58:38.446Z,10.50
2022-08-03T01:03:33.704Z,5.95
2022-08-03T01:06:04.952Z,4.97
2022-08-03T01:08:37.061Z,10.02
2022-08-03T01:11:09.242Z,8.40
2022-08-03T01:14:03.800Z,5.10
2022-08-03T01:16:45.212Z,6.68
2022-08-03T01:19:14.656Z,9.68
2022-08-03T01:21:53.337Z,6.85
2022-08-03T01:24:32.036Z,6.60
2022-08-03T01:27:17.797Z,14.98
2022-08-03T01:32:53.448Z,8.57
2022-08-03T01:35:08.960Z,8.20
2022-08-03T01:37:38.858Z,9.57
2022-08-03T01:40:06.544Z,5.68
2022-08-03T01:42:33.736Z,9.65
2022-08-03T01:45:00.903Z,6.10
2022-08-03T01:47:28.846Z,12.48
2022-08-03T01:49:56.457Z,7.30
2022-08-03T01:52:23.850Z,9.07
2022-08-03T01:54:52.070Z,8.60
2022-08-03T01:57:19.298Z,7.28
2022-08-03T01:59:46.849Z,10.32
2022-08-03T02:02:15.282Z,12.73
2022-08-03T02:05:01.002Z,7.70
2022-08-03T02:07:29.009Z,9.52
2022-08-03T02:09:55.848Z,8.68
2022-08-03T02:12:23.886Z,8.88
2022-08-03T02:14:50.848Z,9.25
2022-08-03T02:17:39.796Z,11.77
2022-08-03T02:20:08.806Z,7.78
2022-08-03T02:22:35.927Z,10.27
2022-08-03T02:25:02.502Z,11.35
2022-08-03T02:27:29.488Z,12.13
2022-08-03T02:30:02.554Z,9.13
2022-08-03T02:32:30.756Z,13.25
2022-08-03T02:34:58.247Z,7.40
2022-08-03T02:37:26.713Z,13.50
2022-08-03T02:39:54.822Z,8.40
2022-08-03T02:42:22.216Z,9.85
2022-08-03T02:44:49.890Z,7.32
2022-08-03T02:47:17.616Z,8.70
2022-08-03T02:49:50.494Z,12.00
2022-08-03T02:52:19.862Z,6.75
2022-08-03T02:54:47.222Z,11.93
2022-08-03T02:57:14.217Z,11.35
2022-08-03T02:59:41.624Z,6.90
2022-08-03T03:02:09.521Z,12.25
2022-08-03T03:04:36.368Z,7.57
2022-08-03T03:07:03.682Z,11.85
2022-08-03T03:09:41.640Z,11.50
2022-08-03T03:12:10.282Z,7.55
2022-08-03T03:14:37.513Z,11.75
2022-08-03T03:17:04.666Z,8.93
2022-08-03T03:19:32.384Z,8.93
2022-08-03T03:22:00.293Z,10.38
2022-08-03T03:24:27.713Z,8.48
2022-08-03T03:26:54.455Z,9.15
2022-08-03T03:29:21.433Z,9.30
2022-08-03T03:31:48.042Z,8.88
2022-08-03T03:34:14.770Z,10.35
2022-08-03T03:36:41.406Z,9.85
2022-08-03T03:39:15.809Z,10.45
2022-08-03T03:41:43.292Z,11.80
2022-08-03T03:44:09.714Z,9.63
2022-08-03T03:49:02.584Z,10.77
2022-08-03T03:51:28.974Z,9.02
2022-08-03T03:56:21.687Z,14.50
2022-08-03T04:01:14.593Z,11.32
2022-08-03T04:03:41.086Z,16.38
2022-08-03T04:09:18.716Z,15.05
2022-08-03T04:11:47.924Z,13.10
2022-08-03T04:14:25.664Z,13.45
2022-08-03T04:16:54.835Z,12.00
2022-08-03T04:19:26.861Z,10.50
2022-08-03T04:21:56.951Z,11.27
2022-08-03T04:24:26.477Z,7.28
2022-08-03T04:26:53.635Z,13.52
2022-08-03T04:29:20.809Z,12.88
2022-08-03T04:31:48.411Z,13.15
2022-08-03T04:34:15.219Z,10.38
2022-08-03T04:36:47.586Z,13.63
2022-08-03T04:39:16.193Z,11.02
2022-08-03T04:42:07.329Z,15.50
2022-08-03T04:44:30.397Z,10.88
2022-08-03T04:46:57.860Z,13.60
2022-08-03T04:49:24.468Z,13.82
2022-08-03T04:51:51.059Z,10.07
2022-08-03T04:54:17.458Z,10.82
2022-08-03T04:59:10.693Z,10.60
2022-08-03T05:01:37.323Z,12.85
2022-08-03T05:04:04.009Z,10.75
2022-08-03T05:06:30.413Z,12.27
2022-08-03T05:11:23.088Z,12.90
2022-08-03T05:16:15.920Z,14.90
2022-08-03T05:21:14.064Z,8.80
2022-08-03T05:23:41.380Z,15.18
2022-08-03T05:26:07.797Z,12.32
2022-08-03T05:31:00.466Z,15.05
2022-08-03T05:35:56.236Z,11.85
2022-08-03T05:41:22.000Z,11.00
2022-08-03T05:43:46.745Z,12.40
2022-08-03T05:46:13.381Z,11.65
2022-08-03T05:48:39.947Z,15.18
2022-08-03T05:51:07.661Z,9.57
2022-08-03T05:53:34.173Z,12.60
2022-08-03T05:56:03.597Z,10.27
2022-08-03T05:58:41.635Z,13.80
2022-08-03T06:01:08.042Z,8.38
2022-08-03T06:03:36.959Z,10.38
2022-08-03T06:08:29.613Z,13.20
2022-08-03T06:10:58.170Z,11.95
2022-08-03T06:13:24.748Z,11.77
2022-08-03T06:15:51.228Z,15.13
2022-08-03T06:18:17.826Z,11.05
2022-08-03T06:20:44.189Z,12.70
2022-08-03T06:23:16.284Z,13.07
2022-08-03T06:25:44.782Z,9.70
2022-08-03T06:28:35.149Z,8.55
2022-08-03T06:30:58.937Z,14.65
2022-08-03T06:33:26.439Z,10.05
2022-08-03T06:36:12.776Z,18.27
2022-08-03T06:38:39.179Z,13.77
2022-08-03T06:41:05.515Z,10.15
2022-08-03T06:43:35.886Z,15.52
2022-08-03T06:46:02.432Z,11.70
2022-08-03T06:48:28.914Z,10.35
2022-08-03T06:50:55.327Z,12.00
2022-08-03T06:53:22.381Z,13.88
2022-08-03T06:55:53.853Z,10.13
2022-08-03T06:58:20.998Z,13.85
2022-08-03T07:00:47.605Z,15.50
2022-08-03T07:03:15.152Z,12.35
2022-08-03T07:05:42.266Z,15.32
2022-08-03T07:08:08.675Z,14.55
2022-08-03T07:10:35.093Z,11.70
2022-08-03T07:13:01.445Z,12.00
2022-08-03T07:15:55.768Z,13.80
2022-08-03T07:18:14.357Z,12.70
2022-08-03T07:20:41.286Z,11.00
2022-08-03T07:23:07.749Z,16.45
2022-08-03T07:25:34.127Z,13.80
2022-08-03T07:28:00.487Z,12.65
2022-08-03T07:30:26.955Z,14.50
2022-08-03T07:32:53.391Z,18.55
2022-08-03T07:35:24.637Z,11.77
2022-08-03T07:37:54.628Z,14.05
2022-08-03T07:40:21.987Z,10.65
2022-08-03T07:42:48.512Z,14.35
2022-08-03T07:45:19.651Z,10.40
2022-08-03T07:47:53.077Z,15.65
2022-08-03T07:50:20.191Z,6.25
2022-08-03T07:52:53.513Z,12.73
2022-08-03T07:55:20.915Z,12.35
2022-08-03T07:57:48.145Z,12.00
2022-08-03T08:00:21.155Z,13.32
2022-08-03T08:02:47.677Z,12.90
2022-08-03T08:05:14.089Z,15.13
2022-08-03T08:07:40.507Z,14.30
2022-08-03T08:10:07.717Z,13.85
2022-08-03T08:12:34.107Z,13.82
2022-08-03T08:15:00.563Z,12.48
2022-08-03T08:17:27.298Z,15.75
2022-08-03T08:19:53.792Z,9.75
2022-08-03T08:22:29.895Z,14.23
2022-08-03T08:24:57.829Z,15.90
2022-08-03T08:27:24.239Z,17.50
2022-08-03T08:29:55.162Z,14.15
2022-08-03T08:32:23.910Z,15.50
2022-08-03T08:34:50.299Z,11.70
2022-08-03T08:37:16.682Z,14.50
2022-08-03T08:39:43.087Z,14.00
2022-08-03T08:42:12.108Z,15.52
2022-08-03T08:44:38.626Z,15.25
2022-08-03T08:47:05.535Z,16.48
2022-08-03T08:49:32.736Z,14.75
2022-08-03T08:52:00.915Z,15.32
2022-08-03T08:54:29.218Z,15.45
2022-08-03T08:56:57.104Z,18.42
2022-08-03T08:59:24.173Z,15.82
2022-08-03T09:01:51.473Z,16.02
2022-08-03T09:04:20.948Z,15.68
2022-08-03T09:07:04.686Z,13.57
2022-08-03T09:10:11.333Z,15.73
2022-08-03T09:12:40.930Z,14.18
2022-08-03T09:15:17.685Z,14.98
2022-08-03T09:17:48.848Z,14.52
2022-08-03T09:20:17.608Z,17.00
2022-08-03T09:22:56.206Z,13.23
2022-08-03T09:25:33.255Z,18.88
2022-08-03T09:28:08.752Z,14.98
2022-08-03T09:30:35.918Z,15.00
2022-08-03T09:33:03.896Z,15.38
2022-08-03T09:35:53.051Z,10.07
2022-08-03T09:38:24.295Z,16.58
2022-08-03T09:40:51.579Z,12.90
2022-08-03T09:43:20.656Z,15.10
2022-08-03T09:45:47.191Z,16.38
2022-08-03T09:48:20.090Z,13.50
2022-08-03T09:50:57.026Z,11.30
2022-08-03T09:53:42.616Z,13.82
2022-08-03T09:56:37.292Z,11.80
2022-08-03T09:59:04.244Z,18.15
2022-08-03T10:01:35.086Z,10.57
2022-08-03T10:04:04.450Z,13.45
2022-08-03T10:06:31.277Z,12.25
2022-08-03T10:09:08.207Z,14.18
2022-08-03T10:11:41.735Z,15.45
2022-08-03T10:14:20.955Z,14.60
2022-08-03T10:16:48.182Z,8.55
2022-08-03T10:19:15.656Z,13.85
2022-08-03T10:21:46.453Z,11.93
2022-08-03T10:24:13.905Z,16.88
2022-08-03T10:26:50.083Z,10.23
2022-08-03T10:29:22.569Z,15.98
2022-08-03T10:31:54.437Z,15.10
2022-08-03T10:34:25.771Z,12.63
2022-08-03T10:36:53.638Z,14.07
2022-08-03T10:39:22.275Z,13.82
2022-08-03T10:41:49.652Z,19.33
2022-08-03T10:44:20.609Z,10.18
2022-08-03T10:46:48.628Z,9.68
2022-08-03T10:49:16.082Z,17.55
2022-08-03T10:51:46.443Z,12.18
2022-08-03T10:55:07.693Z,9.85
2022-08-03T10:57:48.851Z,7.40
2022-08-03T11:00:23.612Z,12.80
2022-08-03T11:03:04.027Z,11.43
2022-08-03T11:05:31.342Z,11.27
2022-08-03T11:08:17.734Z,10.25
2022-08-03T11:10:44.201Z,9.82
2022-08-03T11:13:10.992Z,11.02
2022-08-03T11:15:39.660Z,11.75
2022-08-03T11:18:11.257Z,11.65
2022-08-03T11:20:45.804Z,13.23
2022-08-03T11:23:12.893Z,9.80
2022-08-03T11:25:58.264Z,17.33
2022-08-03T11:28:25.227Z,11.00
2022-08-03T11:30:51.867Z,10.77
2022-08-03T11:33:30.947Z,8.02
2022-08-03T11:36:01.855Z,10.68
2022-08-03T11:38:28.224Z,15.60
2022-08-03T11:40:54.683Z,9.88
2022-08-03T11:43:31.454Z,11.30
2022-08-03T11:45:59.487Z,11.32
2022-08-03T11:48:34.426Z,9.95
2022-08-03T11:51:01.173Z,8.80
2022-08-03T11:53:28.710Z,14.55
2022-08-03T11:55:58.299Z,12.05
2022-08-03T11:59:01.959Z,13.38
2022-08-03T12:01:12.433Z,11.57
2022-08-03T12:03:38.913Z,9.32
2022-08-03T12:06:09.312Z,9.25
2022-08-03T12:08:35.692Z,7.55
2022-08-03T12:11:04.477Z,11.13
2022-08-03T12:14:44.867Z,6.85
2022-08-03T12:16:28.561Z,10.63
2022-08-03T12:18:55.756Z,9.90
2022-08-03T12:21:24.650Z,10.98
2022-08-03T12:23:51.628Z,12.93
2022-08-03T12:26:17.978Z,10.50
2022-08-03T12:28:49.927Z,9.80
2022-08-03T12:31:16.922Z,10.23
2022-08-03T12:33:55.489Z,11.02
2022-08-03T12:36:21.916Z,8.88
2022-08-03T12:38:55.008Z,6.75
2022-08-03T12:41:27.012Z,7.18
2022-08-03T12:43:54.985Z,6.82
2022-08-03T12:46:21.356Z,5.15
2022-08-03T12:49:06.782Z,5.85
2022-08-03T12:51:34.819Z,6.80
2022-08-03T12:54:01.548Z,6.18
2022-08-03T12:56:28.124Z,5.68
2022-08-03T12:58:54.503Z,7.57
2022-08-03T13:01:24.181Z,12.05
2022-08-03T13:03:53.659Z,7.88
2022-08-03T13:06:22.026Z,9.27
2022-08-03T13:08:48.510Z,7.88
2022-08-03T13:11:21.782Z,7.03
2022-08-03T13:13:48.663Z,5.35
2022-08-03T13:16:19.165Z,10.57
2022-08-03T13:18:49.707Z,6.30
2022-08-03T13:21:16.691Z,4.72
2022-08-03T13:23:43.478Z,5.65
2022-08-03T13:26:10.344Z,3.97
2022-08-03T13:28:36.725Z,3.90
2022-08-03T13:31:03.191Z,5.60
2022-08-03T13:33:29.708Z,7.72
2022-08-03T13:35:56.304Z,9.50
2022-08-03T13:38:27.150Z,5.75
2022-08-03T13:40:53.826Z,4.32
2022-08-03T13:43:20.758Z,7.25
2022-08-03T13:45:52.357Z,7.78
2022-08-03T13:48:36.813Z,6.53
2022-08-03T13:51:11.952Z,5.63
2022-08-03T13:53:49.100Z,5.28
2022-08-03T13:56:15.444Z,4.82
2022-08-03T13:58:41.794Z,7.80
2022-08-03T14:01:08.299Z,7.63
2022-08-03T14:03:34.699Z,6.90
2022-08-03T14:06:01.018Z,9.27
2022-08-03T14:08:27.382Z,9.07
2022-08-03T14:10:53.788Z,5.03
2022-08-03T14:13:20.103Z,6.05
2022-08-03T14:15:49.784Z,8.68
2022-08-03T14:18:28.445Z,4.95
2022-08-03T14:20:58.751Z,5.15
2022-08-03T14:23:27.171Z,7.68
2022-08-03T14:25:53.796Z,8.77
2022-08-03T14:28:21.219Z,7.80
2022-08-03T14:30:48.459Z,6.80
2022-08-03T14:33:20.923Z,6.53
2022-08-03T14:35:47.512Z,5.25
2022-08-03T14:38:14.035Z,6.72
2022-08-03T14:40:40.628Z,4.85
2022-08-03T14:43:07.054Z,6.15
2022-08-03T14:45:34.281Z,5.35
2022-08-03T14:50:28.836Z,6.43
2022-08-03T14:50:51.635Z,5.05
2022-08-03T14:53:18.932Z,6.07
2022-08-03T14:55:49.814Z,12.20
2022-08-03T14:58:19.727Z,8.13
2022-08-03T15:00:47.899Z,7.85
2022-08-03T15:03:16.769Z,6.15
2022-08-03T15:05:43.797Z,7.65
2022-08-03T15:08:10.175Z,6.80
2022-08-03T15:10:40.614Z,6.78
2022-08-03T15:13:11.344Z,4.45
2022-08-03T15:15:37.736Z,5.65
2022-08-03T15:18:04.198Z,5.53
2022-08-03T15:20:43.947Z,7.85
2022-08-03T15:23:11.883Z,5.80
2022-08-03T15:26:28.086Z,4.68
2022-08-03T15:28:25.564Z,6.68
2022-08-03T15:30:52.607Z,3.25
2022-08-03T15:33:19.054Z,4.57
2022-08-03T15:35:47.340Z,4.68
2022-08-03T15:38:13.775Z,8.90
2022-08-03T15:40:40.138Z,4.82
2022-08-03T15:43:06.701Z,4.63
2022-08-03T15:45:35.419Z,4.38
2022-08-03T15:48:04.453Z,5.78
2022-08-03T15:50:30.878Z,5.55
2022-08-03T15:52:57.279Z,5.03
2022-08-03T15:55:23.942Z,6.70
2022-08-03T15:59:09.545Z,5.43
2022-08-03T16:00:36.690Z,7.97
2022-08-03T16:03:03.403Z,4.57
2022-08-03T16:05:29.804Z,4.57
2022-08-03T16:08:03.052Z,7.10
2022-08-03T16:10:30.635Z,8.57
2022-08-03T16:12:58.807Z,6.60
2022-08-03T16:15:25.220Z,6.10
2022-08-03T16:17:51.698Z,6.80
2022-08-03T16:20:31.191Z,4.32
2022-08-03T16:23:01.627Z,5.82
2022-08-03T16:25:37.894Z,6.03
2022-08-03T16:28:07.896Z,5.38
2022-08-03T16:30:39.733Z,8.02
2022-08-03T16:33:06.230Z,6.78
2022-08-03T16:35:35.721Z,10.57
2022-08-03T16:38:06.469Z,7.63
2022-08-03T16:40:38.136Z,6.45
2022-08-03T16:43:17.952Z,8.63
2022-08-03T16:45:45.952Z,3.85
2022-08-03T16:48:15.357Z,5.93
2022-08-03T16:50:41.860Z,6.60
2022-08-03T16:53:17.053Z,9.98
2022-08-03T16:55:53.371Z,6.43
2022-08-03T16:58:34.924Z,6.75
2022-08-03T17:01:21.636Z,5.40
2022-08-03T17:04:01.296Z,7.70
2022-08-03T17:06:33.750Z,6.28
2022-08-03T17:09:08.732Z,5.25
2022-08-03T17:11:37.289Z,7.60
2022-08-03T17:14:09.201Z,4.45
2022-08-03T17:16:37.477Z,6.95
2022-08-03T17:19:08.768Z,4.97
2022-08-03T17:21:39.275Z,9.27
2022-08-03T17:24:18.678Z,4.35
2022-08-03T17:26:50.086Z,5.30
2022-08-03T17:29:23.070Z,10.32
2022-08-03T17:31:52.306Z,5.72
2022-08-03T17:34:20.214Z,6.68
2022-08-03T17:37:03.877Z,6.63
2022-08-03T17:39:55.669Z,5.17
2022-08-03T17:42:31.045Z,8.10
2022-08-03T17:44:58.758Z,6.70
2022-08-03T17:47:42.321Z,8.43
2022-08-03T17:50:25.154Z,6.30
2022-08-03T17:52:59.173Z,11.90
2022-08-03T17:55:57.481Z,7.43
2022-08-03T17:58:23.349Z,7.95
2022-08-03T18:01:59.248Z,5.53
2022-08-03T18:04:02.876Z,4.30
2022-08-03T18:06:38.467Z,4.32
2022-08-03T18:10:04.460Z,6.90
2022-08-03T18:12:13.979Z,7.72
2022-08-03T18:14:57.781Z,5.47
2022-08-03T18:17:55.108Z,5.35
2022-08-03T18:20:32.386Z,4.80
2022-08-03T18:23:04.930Z,6.88
2022-08-03T18:25:49.063Z,8.48
2022-08-03T18:28:23.303Z,5.72
2022-08-03T18:30:54.699Z,6.22
2022-08-03T18:34:19.775Z,6.88
2022-08-03T18:36:30.890Z,5.82
2022-08-03T18:38:59.349Z,7.47
2022-08-03T18:41:32.460Z,4.93
2022-08-03T18:44:08.469Z,4.68
2022-08-03T18:47:15.880Z,8.30
2022-08-03T18:49:57.835Z,7.03
2022-08-03T18:52:46.059Z,6.68
2022-08-03T18:55:35.739Z,6.22
2022-08-03T18:58:15.753Z,3.70
2022-08-03T19:01:03.955Z,5.95
2022-08-03T19:03:41.419Z,4.93
2022-08-03T19:06:14.568Z,5.68
2022-08-03T19:11:16.684Z,6.60
2022-08-03T19:13:51.308Z,4.57
2022-08-03T19:16:21.683Z,5.70
2022-08-03T19:18:49.531Z,5.55
2022-08-03T19:21:19.191Z,6.68
2022-08-03T19:23:46.840Z,5.40
2022-08-03T19:26:30.963Z,5.00
2022-08-03T19:28:58.231Z,8.27
2022-08-03T19:31:24.911Z,4.20
2022-08-03T19:33:58.692Z,4.80
2022-08-03T19:36:26.366Z,2.92
2022-08-03T19:38:54.647Z,3.70
2022-08-03T19:41:24.062Z,4.72
2022-08-03T19:44:04.399Z,7.70
2022-08-03T19:46:33.886Z,6.45
2022-08-03T19:49:02.756Z,6.72
2022-08-03T19:51:59.387Z,5.57
2022-08-03T19:54:29.838Z,4.70
2022-08-03T19:57:00.066Z,5.30
2022-08-03T19:59:29.124Z,5.88
2022-08-03T20:01:55.490Z,4.57
2022-08-03T20:04:21.863Z,4.70
2022-08-03T20:06:49.597Z,6.10
2022-08-03T20:09:16.556Z,6.05
2022-08-03T20:11:43.676Z,7.20
2022-08-03T20:14:11.804Z,4.78
2022-08-03T20:16:47.470Z,5.43
2022-08-03T20:19:14.634Z,7.35
2022-08-03T20:21:44.355Z,3.67
2022-08-03T20:24:23.804Z,6.38
2022-08-03T20:26:53.488Z,4.93
2022-08-03T20:29:31.487Z,4.82
2022-08-03T20:32:11.283Z,9.15
2022-08-03T20:34:38.269Z,8.68
2022-08-03T20:37:05.010Z,12.20
2022-08-03T20:39:35.882Z,11.80
2022-08-03T20:42:03.587Z,24.88
2022-08-03T20:44:30.927Z,15.70
2022-08-03T20:47:00.935Z,14.55
2022-08-03T20:52:18.769Z,7.15
2022-08-03T20:54:47.978Z,6.75
2022-08-03T20:57:15.099Z,4.88
2022-08-03T20:59:50.519Z,6.45
2022-08-03T21:02:30.213Z,8.57
2022-08-03T21:04:58.007Z,11.23
2022-08-03T21:08:04.509Z,8.93
2022-08-03T21:10:15.375Z,12.95
2022-08-03T21:12:50.148Z,6.85
2022-08-03T21:13:07.508Z,8.35
2022-08-03T21:16:11.322Z,11.73
2022-08-03T21:18:05.709Z,7.25
2022-08-03T21:20:34.398Z,12.05
2022-08-03T21:23:01.274Z,8.32
2022-08-03T21:25:31.575Z,9.35
2022-08-03T21:27:58.685Z,5.68
2022-08-03T21:30:26.454Z,6.53
2022-08-03T21:32:53.537Z,13.02
2022-08-03T21:35:20.455Z,7.18
2022-08-03T21:37:49.784Z,7.38
2022-08-03T21:40:16.610Z,9.32
2022-08-03T21:42:44.029Z,7.55
2022-08-03T21:45:16.909Z,5.35
2022-08-03T21:47:43.950Z,6.68
2022-08-03T21:50:12.515Z,9.25
2022-08-03T21:52:43.632Z,7.93
2022-08-03T21:55:20.527Z,5.30
2022-08-03T21:57:50.949Z,7.25
2022-08-03T22:00:20.522Z,7.65
2022-08-03T22:02:57.328Z,8.25
2022-08-03T22:05:42.412Z,5.75
2022-08-03T22:08:11.199Z,7.72
2022-08-03T22:10:37.791Z,6.28
2022-08-03T22:13:04.229Z,6.78
2022-08-03T22:15:30.658Z,6.25
2022-08-03T22:17:57.521Z,6.57
2022-08-03T22:20:24.200Z,7.55
2022-08-03T22:22:56.123Z,5.55
2022-08-03T22:25:27.113Z,9.90
2022-08-03T22:27:53.923Z,5.68
2022-08-03T22:30:20.365Z,7.85
2022-08-03T22:32:49.216Z,5.55
2022-08-03T22:35:19.503Z,5.20
2022-08-03T22:37:48.362Z,7.63
2022-08-03T22:40:15.343Z,6.57
2022-08-03T22:42:44.319Z,5.90
2022-08-03T22:45:10.925Z,6.60
2022-08-03T22:47:57.711Z,5.60
2022-08-03T22:50:31.968Z,3.78
2022-08-03T22:53:00.093Z,5.57
2022-08-03T22:55:26.831Z,8.95
2022-08-03T22:57:55.911Z,4.43
2022-08-03T23:00:23.199Z,6.22
2022-08-03T23:02:50.881Z,8.48
2022-08-03T23:06:00.840Z,10.60
2022-08-03T23:08:08.573Z,8.23
2022-08-03T23:10:35.973Z,7.00
2022-08-03T23:13:02.629Z,5.50
2022-08-03T23:15:29.815Z,7.82
2022-08-03T23:17:58.582Z,5.97
2022-08-03T23:20:26.711Z,6.78
2022-08-03T23:22:54.629Z,7.80
2022-08-03T23:25:21.936Z,11.40
2022-08-03T23:27:49.167Z,9.77
2022-08-03T23:30:32.805Z,6.28
2022-08-03T23:33:00.437Z,9.85
2022-08-03T23:36:28.328Z,7.25
2022-08-03T23:38:35.007Z,7.57
2022-08-03T23:41:02.567Z,7.07
2022-08-03T23:43:45.059Z,7.38
2022-08-03T23:46:19.703Z,6.05
2022-08-03T23:48:48.647Z,6.78
2022-08-03T23:51:31.425Z,7.05
2022-08-03T23:54:09.131Z,9.40
2022-08-03T23:56:43.464Z,5.45
2022-08-03T23:59:29.752Z,5.70
